sensor_id;sensor_type;location;lat;lon;timestamp;P1;durP1;ratioP1;P2;durP2;ratioP2
16037;SDS011;8123;50.906;6.172;2023-06-22T00:01:09;18.90;;;12.57;;
16037;SDS011;8123;50.906;6.172;2023-06-22T00:03:35;15.90;;;11.23;;
16037;SDS011;8123;50.906;6.172;2023-06-22T00:06:01;18.43;;;12.00;;
16037;SDS011;8123;50.906;6.172;2023-06-22T00:08:26;15.00;;;12.20;;
16037;SDS011;8123;50.906;6.172;2023-06-22T00:10:52;13.87;;;11.50;;
16037;SDS011;8123;50.906;6.172;2023-06-22T00:13:17;20.27;;;12.30;;
16037;SDS011;8123;50.906;6.172;2023-06-22T00:15:43;15.07;;;11.87;;
16037;SDS011;8123;50.906;6.172;2023-06-22T00:18:09;22.10;;;12.53;;
16037;SDS011;8123;50.906;6.172;2023-06-22T00:20:36;14.13;;;10.63;;
16037;SDS011;8123;50.906;6.172;2023-06-22T00:23:03;14.23;;;10.93;;
16037;SDS011;8123;50.906;6.172;2023-06-22T00:25:38;18.10;;;12.57;;
16037;SDS011;8123;50.906;6.172;2023-06-22T00:28:08;13.63;;;10.60;;
16037;SDS011;8123;50.906;6.172;2023-06-22T00:30:34;15.87;;;11.30;;
16037;SDS011;8123;50.906;6.172;2023-06-22T00:33:00;11.87;;;10.20;;
16037;SDS011;8123;50.906;6.172;2023-06-22T00:35:26;13.70;;;10.50;;
16037;SDS011;8123;50.906;6.172;2023-06-22T00:37:57;15.30;;;10.20;;
16037;SDS011;8123;50.906;6.172;2023-06-22T00:40:27;16.20;;;11.40;;
16037;SDS011;8123;50.906;6.172;2023-06-22T00:42:54;15.23;;;11.00;;
16037;SDS011;8123;50.906;6.172;2023-06-22T00:45:21;13.53;;;10.97;;
16037;SDS011;8123;50.906;6.172;2023-06-22T00:47:48;11.37;;;9.63;;
16037;SDS011;8123;50.906;6.172;2023-06-22T00:50:18;12.03;;;10.40;;
16037;SDS011;8123;50.906;6.172;2023-06-22T00:52:53;11.60;;;9.33;;
16037;SDS011;8123;50.906;6.172;2023-06-22T00:55:21;13.07;;;10.57;;
16037;SDS011;8123;50.906;6.172;2023-06-22T00:57:48;16.07;;;10.50;;
16037;SDS011;8123;50.906;6.172;2023-06-22T01:00:16;10.43;;;9.33;;
16037;SDS011;8123;50.906;6.172;2023-06-22T01:02:44;12.37;;;10.70;;
16037;SDS011;8123;50.906;6.172;2023-06-22T01:05:12;16.23;;;10.53;;
16037;SDS011;8123;50.906;6.172;2023-06-22T01:10:46;15.43;;;11.20;;
16037;SDS011;8123;50.906;6.172;2023-06-22T01:16:06;14.60;;;10.97;;
16037;SDS011;8123;50.906;6.172;2023-06-22T01:18:45;15.77;;;11.13;;
16037;SDS011;8123;50.906;6.172;2023-06-22T01:21:16;18.33;;;12.27;;
16037;SDS011;8123;50.906;6.172;2023-06-22T01:24:01;13.43;;;10.60;;
16037;SDS011;8123;50.906;6.172;2023-06-22T01:29:22;16.00;;;11.90;;
16037;SDS011;8123;50.906;6.172;2023-06-22T01:31:50;17.13;;;11.63;;
16037;SDS011;8123;50.906;6.172;2023-06-22T01:34:19;16.30;;;11.50;;
16037;SDS011;8123;50.906;6.172;2023-06-22T01:36:46;14.47;;;11.87;;
16037;SDS011;8123;50.906;6.172;2023-06-22T01:39:12;14.47;;;10.67;;
16037;SDS011;8123;50.906;6.172;2023-06-22T01:41:39;20.27;;;12.40;;
16037;SDS011;8123;50.906;6.172;2023-06-22T01:44:07;17.63;;;12.90;;
16037;SDS011;8123;50.906;6.172;2023-06-22T01:46:34;19.40;;;11.50;;
16037;SDS011;8123;50.906;6.172;2023-06-22T01:49:02;15.80;;;12.17;;
16037;SDS011;8123;50.906;6.172;2023-06-22T01:51:29;19.27;;;11.73;;
16037;SDS011;8123;50.906;6.172;2023-06-22T01:53:55;15.60;;;12.03;;
16037;SDS011;8123;50.906;6.172;2023-06-22T01:56:21;19.57;;;11.60;;
16037;SDS011;8123;50.906;6.172;2023-06-22T01:59:02;14.90;;;10.33;;
16037;SDS011;8123;50.906;6.172;2023-06-22T02:01:43;25.30;;;11.30;;
16037;SDS011;8123;50.906;6.172;2023-06-22T02:04:21;16.80;;;11.50;;
16037;SDS011;8123;50.906;6.172;2023-06-22T02:06:53;17.93;;;12.87;;
16037;SDS011;8123;50.906;6.172;2023-06-22T02:09:21;21.07;;;13.40;;
16037;SDS011;8123;50.906;6.172;2023-06-22T02:11:48;22.43;;;13.20;;
16037;SDS011;8123;50.906;6.172;2023-06-22T02:14:18;23.03;;;14.30;;
16037;SDS011;8123;50.906;6.172;2023-06-22T02:16:44;16.40;;;12.87;;
16037;SDS011;8123;50.906;6.172;2023-06-22T02:19:11;20.43;;;14.93;;
16037;SDS011;8123;50.906;6.172;2023-06-22T02:21:37;20.77;;;13.63;;
16037;SDS011;8123;50.906;6.172;2023-06-22T02:24:03;18.50;;;13.80;;
16037;SDS011;8123;50.906;6.172;2023-06-22T02:26:29;23.03;;;14.30;;
16037;SDS011;8123;50.906;6.172;2023-06-22T02:28:56;21.50;;;13.10;;
16037;SDS011;8123;50.906;6.172;2023-06-22T02:31:22;22.17;;;15.00;;
16037;SDS011;8123;50.906;6.172;2023-06-22T02:33:56;19.97;;;13.50;;
16037;SDS011;8123;50.906;6.172;2023-06-22T02:36:23;21.40;;;15.20;;
16037;SDS011;8123;50.906;6.172;2023-06-22T02:38:50;24.13;;;14.93;;
16037;SDS011;8123;50.906;6.172;2023-06-22T02:41:15;19.50;;;14.23;;
16037;SDS011;8123;50.906;6.172;2023-06-22T02:43:45;23.10;;;15.70;;
16037;SDS011;8123;50.906;6.172;2023-06-22T02:46:11;22.83;;;16.07;;
16037;SDS011;8123;50.906;6.172;2023-06-22T02:48:38;20.50;;;15.33;;
16037;SDS011;8123;50.906;6.172;2023-06-22T02:51:05;23.80;;;16.00;;
16037;SDS011;8123;50.906;6.172;2023-06-22T02:53:31;25.70;;;15.47;;
16037;SDS011;8123;50.906;6.172;2023-06-22T02:55:57;21.90;;;14.73;;
16037;SDS011;8123;50.906;6.172;2023-06-22T02:58:23;28.63;;;16.43;;
16037;SDS011;8123;50.906;6.172;2023-06-22T03:00:49;22.80;;;15.70;;
16037;SDS011;8123;50.906;6.172;2023-06-22T03:03:18;23.97;;;15.50;;
16037;SDS011;8123;50.906;6.172;2023-06-22T03:05:44;27.43;;;16.33;;
16037;SDS011;8123;50.906;6.172;2023-06-22T03:08:10;24.83;;;16.20;;
16037;SDS011;8123;50.906;6.172;2023-06-22T03:10:35;23.70;;;15.57;;
16037;SDS011;8123;50.906;6.172;2023-06-22T03:13:01;28.10;;;17.03;;
16037;SDS011;8123;50.906;6.172;2023-06-22T03:15:27;25.63;;;16.60;;
16037;SDS011;8123;50.906;6.172;2023-06-22T03:17:54;21.63;;;16.57;;
16037;SDS011;8123;50.906;6.172;2023-06-22T03:20:20;26.40;;;17.03;;
16037;SDS011;8123;50.906;6.172;2023-06-22T03:22:46;25.80;;;16.40;;
16037;SDS011;8123;50.906;6.172;2023-06-22T03:25:13;22.97;;;16.77;;
16037;SDS011;8123;50.906;6.172;2023-06-22T03:27:39;25.60;;;16.50;;
16037;SDS011;8123;50.906;6.172;2023-06-22T03:30:06;21.00;;;15.80;;
16037;SDS011;8123;50.906;6.172;2023-06-22T03:32:33;29.90;;;17.93;;
16037;SDS011;8123;50.906;6.172;2023-06-22T03:34:59;27.43;;;18.20;;
16037;SDS011;8123;50.906;6.172;2023-06-22T03:37:25;28.00;;;17.27;;
16037;SDS011;8123;50.906;6.172;2023-06-22T03:39:51;28.43;;;19.43;;
16037;SDS011;8123;50.906;6.172;2023-06-22T03:42:17;28.83;;;18.53;;
16037;SDS011;8123;50.906;6.172;2023-06-22T03:44:43;28.73;;;18.23;;
16037;SDS011;8123;50.906;6.172;2023-06-22T03:47:09;25.87;;;19.20;;
16037;SDS011;8123;50.906;6.172;2023-06-22T03:49:34;24.83;;;17.90;;
16037;SDS011;8123;50.906;6.172;2023-06-22T03:52:01;29.17;;;18.50;;
16037;SDS011;8123;50.906;6.172;2023-06-22T03:54:28;23.97;;;16.93;;
16037;SDS011;8123;50.906;6.172;2023-06-22T03:56:54;32.47;;;18.10;;
16037;SDS011;8123;50.906;6.172;2023-06-22T03:59:21;22.80;;;18.17;;
16037;SDS011;8123;50.906;6.172;2023-06-22T04:01:47;25.73;;;16.00;;
16037;SDS011;8123;50.906;6.172;2023-06-22T04:04:12;21.40;;;15.60;;
16037;SDS011;8123;50.906;6.172;2023-06-22T04:06:38;23.30;;;16.27;;
16037;SDS011;8123;50.906;6.172;2023-06-22T04:09:05;28.00;;;16.97;;
16037;SDS011;8123;50.906;6.172;2023-06-22T04:11:31;28.33;;;17.10;;
16037;SDS011;8123;50.906;6.172;2023-06-22T04:13:56;22.17;;;16.27;;
16037;SDS011;8123;50.906;6.172;2023-06-22T04:16:22;28.27;;;17.60;;
16037;SDS011;8123;50.906;6.172;2023-06-22T04:18:48;23.13;;;16.40;;
16037;SDS011;8123;50.906;6.172;2023-06-22T04:21:13;29.40;;;17.07;;
16037;SDS011;8123;50.906;6.172;2023-06-22T04:23:39;27.70;;;17.90;;
16037;SDS011;8123;50.906;6.172;2023-06-22T04:26:05;31.20;;;18.17;;
16037;SDS011;8123;50.906;6.172;2023-06-22T04:28:30;25.97;;;18.77;;
16037;SDS011;8123;50.906;6.172;2023-06-22T04:31:00;26.33;;;17.77;;
16037;SDS011;8123;50.906;6.172;2023-06-22T04:33:27;30.60;;;16.90;;
16037;SDS011;8123;50.906;6.172;2023-06-22T04:35:54;26.30;;;17.60;;
16037;SDS011;8123;50.906;6.172;2023-06-22T04:38:22;28.13;;;17.33;;
16037;SDS011;8123;50.906;6.172;2023-06-22T04:40:48;28.60;;;19.70;;
16037;SDS011;8123;50.906;6.172;2023-06-22T04:43:14;27.50;;;19.90;;
16037;SDS011;8123;50.906;6.172;2023-06-22T04:45:40;23.53;;;17.70;;
16037;SDS011;8123;50.906;6.172;2023-06-22T04:48:05;24.47;;;18.80;;
16037;SDS011;8123;50.906;6.172;2023-06-22T04:50:31;32.53;;;17.83;;
16037;SDS011;8123;50.906;6.172;2023-06-22T04:52:57;29.77;;;18.50;;
16037;SDS011;8123;50.906;6.172;2023-06-22T04:55:23;28.80;;;17.13;;
16037;SDS011;8123;50.906;6.172;2023-06-22T04:57:50;24.37;;;17.50;;
16037;SDS011;8123;50.906;6.172;2023-06-22T05:00:17;29.30;;;18.50;;
16037;SDS011;8123;50.906;6.172;2023-06-22T05:02:44;34.97;;;18.70;;
16037;SDS011;8123;50.906;6.172;2023-06-22T05:05:11;29.70;;;18.33;;
16037;SDS011;8123;50.906;6.172;2023-06-22T05:07:49;26.93;;;19.20;;
16037;SDS011;8123;50.906;6.172;2023-06-22T05:10:18;24.43;;;17.80;;
16037;SDS011;8123;50.906;6.172;2023-06-22T05:12:44;36.20;;;17.77;;
16037;SDS011;8123;50.906;6.172;2023-06-22T05:15:10;27.03;;;17.63;;
16037;SDS011;8123;50.906;6.172;2023-06-22T05:17:37;32.03;;;20.40;;
16037;SDS011;8123;50.906;6.172;2023-06-22T05:20:11;28.20;;;18.90;;
16037;SDS011;8123;50.906;6.172;2023-06-22T05:22:37;30.77;;;19.50;;
16037;SDS011;8123;50.906;6.172;2023-06-22T05:25:04;23.47;;;18.50;;
16037;SDS011;8123;50.906;6.172;2023-06-22T05:27:32;29.60;;;18.43;;
16037;SDS011;8123;50.906;6.172;2023-06-22T05:29:58;23.13;;;16.90;;
16037;SDS011;8123;50.906;6.172;2023-06-22T05:32:24;26.63;;;18.53;;
16037;SDS011;8123;50.906;6.172;2023-06-22T05:34:49;24.87;;;17.83;;
16037;SDS011;8123;50.906;6.172;2023-06-22T05:37:15;28.00;;;18.53;;
16037;SDS011;8123;50.906;6.172;2023-06-22T05:39:41;28.90;;;18.10;;
16037;SDS011;8123;50.906;6.172;2023-06-22T05:42:07;27.93;;;19.13;;
16037;SDS011;8123;50.906;6.172;2023-06-22T05:44:33;27.87;;;17.70;;
16037;SDS011;8123;50.906;6.172;2023-06-22T05:46:58;29.50;;;18.53;;
16037;SDS011;8123;50.906;6.172;2023-06-22T05:49:24;37.43;;;18.60;;
16037;SDS011;8123;50.906;6.172;2023-06-22T05:51:54;27.50;;;18.10;;
16037;SDS011;8123;50.906;6.172;2023-06-22T05:54:21;27.70;;;18.67;;
16037;SDS011;8123;50.906;6.172;2023-06-22T05:56:46;32.17;;;18.63;;
16037;SDS011;8123;50.906;6.172;2023-06-22T05:59:12;29.40;;;18.07;;
16037;SDS011;8123;50.906;6.172;2023-06-22T06:01:38;28.90;;;18.10;;
16037;SDS011;8123;50.906;6.172;2023-06-22T06:04:05;32.10;;;17.63;;
16037;SDS011;8123;50.906;6.172;2023-06-22T06:06:33;34.20;;;18.47;;
16037;SDS011;8123;50.906;6.172;2023-06-22T06:08:59;26.90;;;19.10;;
16037;SDS011;8123;50.906;6.172;2023-06-22T06:11:25;27.90;;;18.53;;
16037;SDS011;8123;50.906;6.172;2023-06-22T06:13:51;30.90;;;19.70;;
16037;SDS011;8123;50.906;6.172;2023-06-22T06:16:17;31.63;;;18.20;;
16037;SDS011;8123;50.906;6.172;2023-06-22T06:18:42;21.40;;;18.43;;
16037;SDS011;8123;50.906;6.172;2023-06-22T06:21:08;30.20;;;18.63;;
16037;SDS011;8123;50.906;6.172;2023-06-22T06:23:34;38.07;;;20.33;;
16037;SDS011;8123;50.906;6.172;2023-06-22T06:25:59;33.17;;;19.53;;
16037;SDS011;8123;50.906;6.172;2023-06-22T06:28:26;26.30;;;19.07;;
16037;SDS011;8123;50.906;6.172;2023-06-22T06:30:52;29.47;;;19.90;;
16037;SDS011;8123;50.906;6.172;2023-06-22T06:33:18;31.97;;;21.03;;
16037;SDS011;8123;50.906;6.172;2023-06-22T06:35:44;27.20;;;18.60;;
16037;SDS011;8123;50.906;6.172;2023-06-22T06:38:09;27.43;;;19.00;;
16037;SDS011;8123;50.906;6.172;2023-06-22T06:40:35;29.90;;;19.03;;
16037;SDS011;8123;50.906;6.172;2023-06-22T06:43:01;27.80;;;19.27;;
16037;SDS011;8123;50.906;6.172;2023-06-22T06:45:26;31.10;;;18.47;;
16037;SDS011;8123;50.906;6.172;2023-06-22T06:47:53;32.30;;;18.23;;
16037;SDS011;8123;50.906;6.172;2023-06-22T06:50:19;36.10;;;17.73;;
16037;SDS011;8123;50.906;6.172;2023-06-22T06:52:45;25.83;;;18.00;;
16037;SDS011;8123;50.906;6.172;2023-06-22T06:55:10;25.07;;;18.43;;
16037;SDS011;8123;50.906;6.172;2023-06-22T06:57:39;28.87;;;19.50;;
16037;SDS011;8123;50.906;6.172;2023-06-22T07:00:07;23.97;;;18.60;;
16037;SDS011;8123;50.906;6.172;2023-06-22T07:02:40;29.73;;;17.60;;
16037;SDS011;8123;50.906;6.172;2023-06-22T07:05:08;27.90;;;18.00;;
16037;SDS011;8123;50.906;6.172;2023-06-22T07:07:34;26.53;;;17.80;;
16037;SDS011;8123;50.906;6.172;2023-06-22T07:10:00;27.93;;;18.87;;
16037;SDS011;8123;50.906;6.172;2023-06-22T07:12:26;29.43;;;17.30;;
16037;SDS011;8123;50.906;6.172;2023-06-22T07:14:52;27.97;;;18.90;;
16037;SDS011;8123;50.906;6.172;2023-06-22T07:17:18;25.27;;;18.10;;
16037;SDS011;8123;50.906;6.172;2023-06-22T07:19:43;23.30;;;18.07;;
16037;SDS011;8123;50.906;6.172;2023-06-22T07:22:09;26.83;;;18.53;;
16037;SDS011;8123;50.906;6.172;2023-06-22T07:24:35;26.13;;;18.60;;
16037;SDS011;8123;50.906;6.172;2023-06-22T07:27:00;30.00;;;18.30;;
16037;SDS011;8123;50.906;6.172;2023-06-22T07:29:27;29.23;;;19.13;;
16037;SDS011;8123;50.906;6.172;2023-06-22T07:31:53;28.97;;;17.30;;
16037;SDS011;8123;50.906;6.172;2023-06-22T07:34:19;31.30;;;18.43;;
16037;SDS011;8123;50.906;6.172;2023-06-22T07:36:45;25.93;;;17.27;;
16037;SDS011;8123;50.906;6.172;2023-06-22T07:39:11;29.23;;;17.27;;
16037;SDS011;8123;50.906;6.172;2023-06-22T07:41:38;30.80;;;17.50;;
16037;SDS011;8123;50.906;6.172;2023-06-22T07:44:04;28.33;;;16.80;;
16037;SDS011;8123;50.906;6.172;2023-06-22T07:46:31;27.20;;;17.90;;
16037;SDS011;8123;50.906;6.172;2023-06-22T07:48:57;29.20;;;19.07;;
16037;SDS011;8123;50.906;6.172;2023-06-22T07:51:23;22.30;;;17.60;;
16037;SDS011;8123;50.906;6.172;2023-06-22T07:53:49;31.10;;;17.83;;
16037;SDS011;8123;50.906;6.172;2023-06-22T07:56:14;22.60;;;17.50;;
16037;SDS011;8123;50.906;6.172;2023-06-22T07:58:44;23.37;;;16.70;;
16037;SDS011;8123;50.906;6.172;2023-06-22T08:01:11;30.30;;;16.60;;
16037;SDS011;8123;50.906;6.172;2023-06-22T08:03:37;28.10;;;17.60;;
16037;SDS011;8123;50.906;6.172;2023-06-22T08:06:03;31.17;;;19.23;;
16037;SDS011;8123;50.906;6.172;2023-06-22T08:08:28;23.23;;;17.53;;
16037;SDS011;8123;50.906;6.172;2023-06-22T08:10:54;30.70;;;17.60;;
16037;SDS011;8123;50.906;6.172;2023-06-22T08:13:21;30.90;;;19.20;;
16037;SDS011;8123;50.906;6.172;2023-06-22T08:15:47;25.63;;;18.50;;
16037;SDS011;8123;50.906;6.172;2023-06-22T08:18:12;28.80;;;18.23;;
16037;SDS011;8123;50.906;6.172;2023-06-22T08:20:38;21.87;;;16.97;;
16037;SDS011;8123;50.906;6.172;2023-06-22T08:23:03;23.57;;;17.27;;
16037;SDS011;8123;50.906;6.172;2023-06-22T08:25:34;25.70;;;17.53;;
16037;SDS011;8123;50.906;6.172;2023-06-22T08:28:00;33.93;;;20.47;;
16037;SDS011;8123;50.906;6.172;2023-06-22T08:30:26;32.00;;;19.10;;
16037;SDS011;8123;50.906;6.172;2023-06-22T08:32:52;32.63;;;21.23;;
16037;SDS011;8123;50.906;6.172;2023-06-22T08:35:19;27.63;;;19.80;;
16037;SDS011;8123;50.906;6.172;2023-06-22T08:37:45;28.77;;;19.37;;
16037;SDS011;8123;50.906;6.172;2023-06-22T08:40:17;27.00;;;19.63;;
16037;SDS011;8123;50.906;6.172;2023-06-22T08:42:44;27.70;;;20.90;;
16037;SDS011;8123;50.906;6.172;2023-06-22T08:45:11;27.00;;;18.90;;
16037;SDS011;8123;50.906;6.172;2023-06-22T08:47:38;29.00;;;20.80;;
16037;SDS011;8123;50.906;6.172;2023-06-22T08:50:05;24.17;;;18.30;;
16037;SDS011;8123;50.906;6.172;2023-06-22T08:52:31;28.33;;;19.30;;
16037;SDS011;8123;50.906;6.172;2023-06-22T08:54:57;33.00;;;17.63;;
16037;SDS011;8123;50.906;6.172;2023-06-22T08:57:25;29.07;;;19.90;;
16037;SDS011;8123;50.906;6.172;2023-06-22T08:59:52;26.70;;;20.23;;
16037;SDS011;8123;50.906;6.172;2023-06-22T09:02:18;29.67;;;21.17;;
16037;SDS011;8123;50.906;6.172;2023-06-22T09:04:45;28.70;;;20.00;;
16037;SDS011;8123;50.906;6.172;2023-06-22T09:07:11;31.30;;;21.50;;
16037;SDS011;8123;50.906;6.172;2023-06-22T09:09:36;35.33;;;21.50;;
16037;SDS011;8123;50.906;6.172;2023-06-22T09:12:02;31.70;;;23.17;;
16037;SDS011;8123;50.906;6.172;2023-06-22T09:14:28;27.07;;;22.07;;
16037;SDS011;8123;50.906;6.172;2023-06-22T09:16:54;33.13;;;20.87;;
16037;SDS011;8123;50.906;6.172;2023-06-22T09:19:19;25.53;;;19.13;;
16037;SDS011;8123;50.906;6.172;2023-06-22T09:21:45;33.37;;;19.73;;
16037;SDS011;8123;50.906;6.172;2023-06-22T09:24:10;28.40;;;21.77;;
16037;SDS011;8123;50.906;6.172;2023-06-22T09:26:36;25.43;;;17.77;;
16037;SDS011;8123;50.906;6.172;2023-06-22T09:29:04;24.53;;;18.97;;
16037;SDS011;8123;50.906;6.172;2023-06-22T09:31:31;23.10;;;19.23;;
16037;SDS011;8123;50.906;6.172;2023-06-22T09:33:56;32.00;;;20.23;;
16037;SDS011;8123;50.906;6.172;2023-06-22T09:36:25;28.03;;;19.33;;
16037;SDS011;8123;50.906;6.172;2023-06-22T09:39:49;35.83;;;18.50;;
16037;SDS011;8123;50.906;6.172;2023-06-22T09:42:40;28.23;;;19.50;;
16037;SDS011;8123;50.906;6.172;2023-06-22T09:45:20;29.83;;;22.40;;
16037;SDS011;8123;50.906;6.172;2023-06-22T09:52:07;34.10;;;21.90;;
16037;SDS011;8123;50.906;6.172;2023-06-22T09:55:00;26.10;;;18.83;;
16037;SDS011;8123;50.906;6.172;2023-06-22T09:57:31;29.50;;;20.17;;
16037;SDS011;8123;50.906;6.172;2023-06-22T10:00:20;30.83;;;20.47;;
16037;SDS011;8123;50.906;6.172;2023-06-22T10:03:23;27.70;;;19.77;;
16037;SDS011;8123;50.906;6.172;2023-06-22T10:05:49;29.67;;;21.70;;
16037;SDS011;8123;50.906;6.172;2023-06-22T10:08:15;24.30;;;20.00;;
16037;SDS011;8123;50.906;6.172;2023-06-22T10:10:40;30.30;;;21.93;;
16037;SDS011;8123;50.906;6.172;2023-06-22T10:13:09;29.37;;;23.00;;
16037;SDS011;8123;50.906;6.172;2023-06-22T10:15:37;31.77;;;23.70;;
16037;SDS011;8123;50.906;6.172;2023-06-22T10:18:03;29.37;;;23.13;;
16037;SDS011;8123;50.906;6.172;2023-06-22T10:20:29;31.80;;;23.37;;
16037;SDS011;8123;50.906;6.172;2023-06-22T10:22:55;38.10;;;24.33;;
16037;SDS011;8123;50.906;6.172;2023-06-22T10:25:22;36.63;;;24.13;;
16037;SDS011;8123;50.906;6.172;2023-06-22T10:27:52;35.93;;;25.50;;
16037;SDS011;8123;50.906;6.172;2023-06-22T10:30:18;32.80;;;24.60;;
16037;SDS011;8123;50.906;6.172;2023-06-22T10:32:46;43.83;;;27.97;;
16037;SDS011;8123;50.906;6.172;2023-06-22T10:35:12;44.37;;;29.33;;
16037;SDS011;8123;50.906;6.172;2023-06-22T10:37:40;40.23;;;29.03;;
16037;SDS011;8123;50.906;6.172;2023-06-22T10:40:11;37.67;;;28.03;;
16037;SDS011;8123;50.906;6.172;2023-06-22T10:42:40;46.60;;;32.73;;
16037;SDS011;8123;50.906;6.172;2023-06-22T10:45:06;43.00;;;34.17;;
16037;SDS011;8123;50.906;6.172;2023-06-22T10:47:33;41.73;;;29.47;;
16037;SDS011;8123;50.906;6.172;2023-06-22T10:49:59;48.60;;;34.10;;
16037;SDS011;8123;50.906;6.172;2023-06-22T10:52:24;42.50;;;32.10;;
16037;SDS011;8123;50.906;6.172;2023-06-22T10:54:50;43.27;;;33.20;;
16037;SDS011;8123;50.906;6.172;2023-06-22T10:57:17;39.80;;;32.37;;
16037;SDS011;8123;50.906;6.172;2023-06-22T10:59:42;51.70;;;37.60;;
16037;SDS011;8123;50.906;6.172;2023-06-22T11:02:08;51.20;;;36.90;;
16037;SDS011;8123;50.906;6.172;2023-06-22T11:04:33;53.77;;;40.47;;
16037;SDS011;8123;50.906;6.172;2023-06-22T11:07:00;52.20;;;37.93;;
16037;SDS011;8123;50.906;6.172;2023-06-22T11:09:25;49.50;;;36.60;;
16037;SDS011;8123;50.906;6.172;2023-06-22T11:11:51;44.97;;;34.03;;
16037;SDS011;8123;50.906;6.172;2023-06-22T11:14:20;50.63;;;36.27;;
16037;SDS011;8123;50.906;6.172;2023-06-22T11:16:46;53.17;;;35.50;;
16037;SDS011;8123;50.906;6.172;2023-06-22T11:19:12;45.93;;;34.20;;
16037;SDS011;8123;50.906;6.172;2023-06-22T11:21:38;48.07;;;37.27;;
16037;SDS011;8123;50.906;6.172;2023-06-22T11:24:04;48.03;;;35.00;;
16037;SDS011;8123;50.906;6.172;2023-06-22T11:26:30;42.23;;;31.43;;
16037;SDS011;8123;50.906;6.172;2023-06-22T11:28:56;49.93;;;35.53;;
16037;SDS011;8123;50.906;6.172;2023-06-22T11:31:22;44.60;;;34.27;;
16037;SDS011;8123;50.906;6.172;2023-06-22T11:33:48;43.10;;;28.90;;
16037;SDS011;8123;50.906;6.172;2023-06-22T11:36:14;34.90;;;26.60;;
16037;SDS011;8123;50.906;6.172;2023-06-22T11:38:40;34.20;;;23.90;;
16037;SDS011;8123;50.906;6.172;2023-06-22T11:41:06;30.60;;;23.03;;
16037;SDS011;8123;50.906;6.172;2023-06-22T11:43:32;19.13;;;16.20;;
16037;SDS011;8123;50.906;6.172;2023-06-22T11:45:59;25.80;;;21.60;;
16037;SDS011;8123;50.906;6.172;2023-06-22T11:48:25;27.90;;;20.50;;
16037;SDS011;8123;50.906;6.172;2023-06-22T11:50:51;32.33;;;21.23;;
16037;SDS011;8123;50.906;6.172;2023-06-22T11:53:17;24.33;;;20.30;;
16037;SDS011;8123;50.906;6.172;2023-06-22T11:55:43;28.20;;;19.67;;
16037;SDS011;8123;50.906;6.172;2023-06-22T11:58:09;24.47;;;18.40;;
16037;SDS011;8123;50.906;6.172;2023-06-22T12:00:36;21.50;;;16.80;;
16037;SDS011;8123;50.906;6.172;2023-06-22T12:03:02;23.50;;;16.83;;
16037;SDS011;8123;50.906;6.172;2023-06-22T12:05:28;24.60;;;18.17;;
16037;SDS011;8123;50.906;6.172;2023-06-22T12:07:54;21.00;;;17.50;;
16037;SDS011;8123;50.906;6.172;2023-06-22T12:10:20;23.47;;;18.77;;
16037;SDS011;8123;50.906;6.172;2023-06-22T12:12:47;27.03;;;19.40;;
16037;SDS011;8123;50.906;6.172;2023-06-22T12:15:13;24.20;;;18.80;;
16037;SDS011;8123;50.906;6.172;2023-06-22T12:17:40;27.43;;;19.17;;
16037;SDS011;8123;50.906;6.172;2023-06-22T12:20:06;28.20;;;21.27;;
16037;SDS011;8123;50.906;6.172;2023-06-22T12:22:32;24.93;;;19.87;;
16037;SDS011;8123;50.906;6.172;2023-06-22T12:24:58;26.93;;;21.17;;
16037;SDS011;8123;50.906;6.172;2023-06-22T12:27:24;25.17;;;20.23;;
16037;SDS011;8123;50.906;6.172;2023-06-22T12:29:50;32.57;;;20.97;;
16037;SDS011;8123;50.906;6.172;2023-06-22T12:32:16;31.83;;;21.77;;
16037;SDS011;8123;50.906;6.172;2023-06-22T12:34:42;28.27;;;20.73;;
16037;SDS011;8123;50.906;6.172;2023-06-22T12:37:08;23.47;;;19.97;;
16037;SDS011;8123;50.906;6.172;2023-06-22T12:39:34;32.70;;;20.37;;
16037;SDS011;8123;50.906;6.172;2023-06-22T12:42:00;28.57;;;19.67;;
16037;SDS011;8123;50.906;6.172;2023-06-22T12:44:25;28.03;;;20.90;;
16037;SDS011;8123;50.906;6.172;2023-06-22T12:46:51;24.23;;;19.80;;
16037;SDS011;8123;50.906;6.172;2023-06-22T12:49:17;27.47;;;20.57;;
16037;SDS011;8123;50.906;6.172;2023-06-22T12:51:43;29.10;;;20.63;;
16037;SDS011;8123;50.906;6.172;2023-06-22T12:54:09;27.47;;;21.93;;
16037;SDS011;8123;50.906;6.172;2023-06-22T12:56:35;28.17;;;22.43;;
16037;SDS011;8123;50.906;6.172;2023-06-22T12:59:01;37.90;;;26.67;;
16037;SDS011;8123;50.906;6.172;2023-06-22T13:01:27;36.47;;;27.10;;
16037;SDS011;8123;50.906;6.172;2023-06-22T13:03:53;33.80;;;26.90;;
16037;SDS011;8123;50.906;6.172;2023-06-22T13:06:19;35.83;;;26.33;;
16037;SDS011;8123;50.906;6.172;2023-06-22T13:08:45;34.77;;;25.23;;
16037;SDS011;8123;50.906;6.172;2023-06-22T13:11:10;35.90;;;27.13;;
16037;SDS011;8123;50.906;6.172;2023-06-22T13:13:36;39.40;;;31.53;;
16037;SDS011;8123;50.906;6.172;2023-06-22T13:16:03;41.93;;;30.27;;
16037;SDS011;8123;50.906;6.172;2023-06-22T13:18:29;37.13;;;29.50;;
16037;SDS011;8123;50.906;6.172;2023-06-22T13:20:54;47.47;;;30.80;;
16037;SDS011;8123;50.906;6.172;2023-06-22T13:23:20;42.67;;;32.10;;
16037;SDS011;8123;50.906;6.172;2023-06-22T13:25:46;45.80;;;31.67;;
16037;SDS011;8123;50.906;6.172;2023-06-22T13:28:12;43.90;;;30.57;;
16037;SDS011;8123;50.906;6.172;2023-06-22T13:30:39;45.43;;;31.57;;
16037;SDS011;8123;50.906;6.172;2023-06-22T13:33:05;44.03;;;31.03;;
16037;SDS011;8123;50.906;6.172;2023-06-22T13:35:31;45.20;;;30.03;;
16037;SDS011;8123;50.906;6.172;2023-06-22T13:37:57;43.23;;;31.00;;
16037;SDS011;8123;50.906;6.172;2023-06-22T13:40:22;46.33;;;32.77;;
16037;SDS011;8123;50.906;6.172;2023-06-22T13:42:48;44.07;;;31.60;;
16037;SDS011;8123;50.906;6.172;2023-06-22T13:45:14;39.73;;;31.47;;
16037;SDS011;8123;50.906;6.172;2023-06-22T13:47:42;40.67;;;30.70;;
16037;SDS011;8123;50.906;6.172;2023-06-22T13:50:08;50.33;;;31.80;;
16037;SDS011;8123;50.906;6.172;2023-06-22T13:52:34;46.80;;;33.30;;
16037;SDS011;8123;50.906;6.172;2023-06-22T13:55:00;50.13;;;33.17;;
16037;SDS011;8123;50.906;6.172;2023-06-22T13:57:25;40.10;;;31.27;;
16037;SDS011;8123;50.906;6.172;2023-06-22T13:59:51;40.27;;;30.70;;
16037;SDS011;8123;50.906;6.172;2023-06-22T14:02:18;43.93;;;31.60;;
16037;SDS011;8123;50.906;6.172;2023-06-22T14:04:43;43.90;;;34.17;;
16037;SDS011;8123;50.906;6.172;2023-06-22T14:07:09;47.17;;;34.97;;
16037;SDS011;8123;50.906;6.172;2023-06-22T14:09:35;48.97;;;33.60;;
16037;SDS011;8123;50.906;6.172;2023-06-22T14:12:04;44.80;;;34.23;;
16037;SDS011;8123;50.906;6.172;2023-06-22T14:14:31;46.47;;;35.77;;
16037;SDS011;8123;50.906;6.172;2023-06-22T14:16:58;49.30;;;34.00;;
16037;SDS011;8123;50.906;6.172;2023-06-22T14:19:24;48.37;;;35.33;;
16037;SDS011;8123;50.906;6.172;2023-06-22T14:21:49;49.20;;;33.67;;
16037;SDS011;8123;50.906;6.172;2023-06-22T14:24:15;52.23;;;36.00;;
16037;SDS011;8123;50.906;6.172;2023-06-22T14:26:41;49.57;;;37.47;;
16037;SDS011;8123;50.906;6.172;2023-06-22T14:29:06;58.50;;;40.67;;
16037;SDS011;8123;50.906;6.172;2023-06-22T14:31:32;61.83;;;44.90;;
16037;SDS011;8123;50.906;6.172;2023-06-22T14:33:58;73.93;;;46.60;;
16037;SDS011;8123;50.906;6.172;2023-06-22T14:36:23;66.00;;;47.67;;
16037;SDS011;8123;50.906;6.172;2023-06-22T14:38:49;71.03;;;50.10;;
16037;SDS011;8123;50.906;6.172;2023-06-22T14:41:15;74.30;;;47.90;;
16037;SDS011;8123;50.906;6.172;2023-06-22T14:43:45;80.37;;;48.60;;
16037;SDS011;8123;50.906;6.172;2023-06-22T14:46:12;75.53;;;51.00;;
16037;SDS011;8123;50.906;6.172;2023-06-22T14:48:42;68.67;;;51.57;;